createdAt,value
2022-08-06T00:00:07.104Z,2.28
2022-08-06T00:02:32.066Z,2.65
2022-08-06T00:05:03.933Z,2.63
2022-08-06T00:07:35.871Z,3.25
2022-08-06T00:10:15.793Z,2.92
2022-08-06T00:12:45.009Z,2.50
2022-08-06T00:15:15.150Z,2.20
2022-08-06T00:17:46.465Z,2.45
2022-08-06T00:20:25.419Z,4.47
2022-08-06T00:23:00.795Z,2.65
2022-08-06T00:25:35.748Z,4.45
2022-08-06T00:28:15.013Z,2.10
2022-08-06T00:30:44.167Z,3.58
2022-08-06T00:33:11.790Z,2.65
2022-08-06T00:35:45.311Z,1.80
2022-08-06T00:38:13.430Z,3.40
2022-08-06T00:40:50.139Z,3.30
2022-08-06T00:43:26.139Z,3.15
2022-08-06T00:45:53.166Z,3.88
2022-08-06T00:48:37.473Z,4.13
2022-08-06T00:51:11.524Z,3.42
2022-08-06T00:53:45.748Z,2.65
2022-08-06T00:56:15.975Z,1.92
2022-08-06T00:58:43.633Z,3.35
2022-08-06T01:01:17.161Z,5.40
2022-08-06T01:03:51.757Z,3.45
2022-08-06T01:06:56.438Z,3.00
2022-08-06T01:09:11.766Z,3.22
2022-08-06T01:11:39.449Z,5.20
2022-08-06T01:14:09.791Z,6.68
2022-08-06T01:16:45.358Z,5.60
2022-08-06T01:21:57.440Z,4.13
2022-08-06T01:23:17.194Z,2.90
2022-08-06T01:26:07.543Z,2.95
2022-08-06T01:28:52.015Z,4.68
2022-08-06T01:31:50.983Z,3.50
2022-08-06T01:34:51.512Z,5.20
2022-08-06T01:38:13.348Z,2.50
2022-08-06T01:40:51.579Z,4.38
2022-08-06T01:44:05.853Z,4.80
2022-08-06T01:46:11.313Z,3.15
2022-08-06T01:48:40.174Z,3.85
2022-08-06T01:51:17.211Z,3.13
2022-08-06T01:54:06.492Z,4.63
2022-08-06T01:56:56.156Z,4.95
2022-08-06T01:59:32.104Z,5.97
2022-08-06T02:02:01.648Z,3.78
2022-08-06T02:04:39.024Z,2.63
2022-08-06T02:08:34.515Z,2.78
2022-08-06T02:09:59.946Z,4.75
2022-08-06T02:12:32.428Z,4.53
2022-08-06T02:15:16.136Z,5.25
2022-08-06T02:18:04.003Z,5.07
2022-08-06T02:20:42.085Z,4.35
2022-08-06T02:23:21.990Z,6.07
2022-08-06T02:25:54.371Z,5.13
2022-08-06T02:28:25.999Z,4.85
2022-08-06T02:30:56.905Z,4.18
2022-08-06T02:34:00.927Z,3.75
2022-08-06T02:36:49.828Z,5.55
2022-08-06T02:39:30.252Z,5.00
2022-08-06T02:42:29.808Z,4.53
2022-08-06T02:45:01.574Z,4.90
2022-08-06T02:47:53.324Z,4.38
2022-08-06T02:50:24.836Z,3.97
2022-08-06T02:53:03.778Z,3.78
2022-08-06T02:55:35.409Z,4.80
2022-08-06T02:58:29.531Z,4.20
2022-08-06T03:01:10.338Z,7.10
2022-08-06T03:03:40.812Z,4.82
2022-08-06T03:06:26.710Z,4.38
2022-08-06T03:08:55.438Z,5.03
2022-08-06T03:11:24.745Z,4.95
2022-08-06T03:13:53.816Z,5.40
2022-08-06T03:16:23.149Z,4.47
2022-08-06T03:19:54.330Z,5.05
2022-08-06T03:21:50.696Z,5.68
2022-08-06T03:24:26.309Z,7.78
2022-08-06T03:26:58.155Z,5.32
2022-08-06T03:29:28.359Z,7.63
2022-08-06T03:32:13.410Z,5.22
2022-08-06T03:34:46.595Z,4.70
2022-08-06T03:37:16.527Z,7.57
2022-08-06T03:39:47.061Z,5.72
2022-08-06T03:42:14.904Z,5.65
2022-08-06T03:44:41.632Z,4.53
2022-08-06T03:47:17.750Z,5.32
2022-08-06T03:50:12.360Z,5.30
2022-08-06T03:52:42.592Z,5.93
2022-08-06T03:55:15.489Z,4.82
2022-08-06T03:57:53.399Z,5.18
2022-08-06T04:00:28.436Z,4.57
2022-08-06T04:02:56.998Z,5.03
2022-08-06T04:05:31.095Z,4.97
2022-08-06T04:08:04.834Z,5.68
2022-08-06T04:10:39.147Z,4.88
2022-08-06T04:14:02.979Z,5.15
2022-08-06T04:16:03.906Z,4.80
2022-08-06T04:18:41.778Z,5.13
2022-08-06T04:23:00.200Z,4.63
2022-08-06T04:24:09.874Z,8.20
2022-08-06T04:26:40.613Z,4.97
2022-08-06T04:29:12.507Z,5.43
2022-08-06T04:32:11.746Z,5.00
2022-08-06T04:34:32.219Z,7.07
2022-08-06T04:37:01.468Z,4.40
2022-08-06T04:39:37.796Z,4.25
2022-08-06T04:42:15.994Z,4.10
2022-08-06T04:44:44.710Z,3.45
2022-08-06T04:47:15.100Z,5.25
2022-08-06T04:49:58.235Z,3.45
2022-08-06T04:52:49.067Z,3.15
2022-08-06T04:55:24.704Z,3.88
2022-08-06T04:58:03.275Z,4.03
2022-08-06T05:01:04.059Z,4.50
2022-08-06T05:04:06.267Z,3.72
2022-08-06T05:06:25.190Z,3.30
2022-08-06T05:09:04.077Z,3.75
2022-08-06T05:11:58.048Z,3.28
2022-08-06T05:14:32.960Z,2.75
2022-08-06T05:17:04.336Z,2.00
2022-08-06T05:19:40.789Z,6.88
2022-08-06T05:22:12.989Z,2.53
2022-08-06T05:25:00.798Z,4.20
2022-08-06T05:27:54.312Z,3.70
2022-08-06T05:30:17.734Z,2.83
2022-08-06T05:32:46.831Z,2.08
2022-08-06T05:35:18.329Z,2.97
2022-08-06T05:38:01.371Z,3.67
2022-08-06T05:40:35.108Z,2.20
2022-08-06T05:43:22.546Z,1.83
2022-08-06T05:45:52.316Z,2.55
2022-08-06T05:48:21.204Z,1.77
2022-08-06T05:51:04.992Z,4.20
2022-08-06T05:54:04.691Z,2.45
2022-08-06T05:56:40.052Z,2.05
2022-08-06T05:59:37.475Z,2.25
2022-08-06T06:03:24.361Z,2.38
2022-08-06T06:07:16.461Z,2.63
2022-08-06T06:13:58.390Z,2.25
2022-08-06T06:16:59.422Z,1.80
2022-08-06T06:19:39.220Z,2.33
2022-08-06T06:22:28.742Z,2.65
2022-08-06T06:25:11.181Z,3.42
2022-08-06T06:27:45.663Z,1.35
2022-08-06T06:30:39.608Z,1.85
2022-08-06T06:33:51.170Z,1.77
2022-08-06T06:36:31.289Z,1.55
2022-08-06T06:39:23.372Z,0.90
2022-08-06T06:41:59.149Z,1.33
2022-08-06T06:45:04.598Z,2.08
2022-08-06T06:47:58.104Z,1.45
2022-08-06T06:50:30.787Z,1.05
2022-08-06T06:52:58.775Z,1.15
2022-08-06T06:55:55.736Z,0.93
2022-08-06T06:58:33.571Z,2.28
2022-08-06T07:01:14.316Z,0.80
2022-08-06T07:03:51.409Z,5.00
2022-08-06T07:06:30.776Z,1.23
2022-08-06T07:09:14.729Z,0.63
2022-08-06T07:12:02.278Z,0.63
2022-08-06T07:14:35.969Z,0.95
2022-08-06T07:17:45.087Z,0.65
2022-08-06T07:19:58.939Z,0.40
2022-08-06T07:22:28.807Z,2.38
2022-08-06T07:25:02.187Z,0.65
2022-08-06T07:27:51.755Z,3.03
2022-08-06T07:34:30.262Z,2.20
2022-08-06T07:36:59.494Z,0.95
2022-08-06T07:42:15.589Z,0.93
2022-08-06T07:44:54.956Z,0.50
2022-08-06T07:47:29.641Z,0.57
2022-08-06T07:50:14.827Z,1.05
2022-08-06T07:52:42.888Z,0.63
2022-08-06T07:55:12.043Z,4.40
2022-08-06T07:57:55.728Z,2.42
2022-08-06T08:00:27.318Z,2.03
2022-08-06T08:03:19.279Z,1.20
2022-08-06T08:06:22.645Z,0.82
2022-08-06T08:08:56.823Z,0.45
2022-08-06T08:11:37.592Z,0.65
2022-08-06T08:14:13.928Z,0.85
2022-08-06T08:16:42.228Z,1.92
2022-08-06T08:19:22.981Z,1.02
2022-08-06T08:21:51.164Z,3.10
2022-08-06T08:24:18.923Z,0.80
2022-08-06T08:27:04.274Z,1.20
2022-08-06T08:29:34.612Z,0.85
2022-08-06T08:32:02.147Z,0.50
2022-08-06T08:34:32.315Z,0.80
2022-08-06T08:37:00.756Z,0.70
2022-08-06T08:39:28.617Z,0.43
2022-08-06T08:42:36.657Z,1.55
2022-08-06T08:45:04.321Z,0.30
2022-08-06T08:47:39.001Z,1.77
2022-08-06T08:50:23.388Z,1.70
2022-08-06T08:52:52.942Z,0.95
2022-08-06T08:57:08.196Z,0.47
2022-08-06T08:58:39.621Z,1.10
2022-08-06T09:01:00.280Z,0.65
2022-08-06T09:03:27.110Z,0.35
2022-08-06T09:05:54.128Z,0.75
2022-08-06T09:08:47.222Z,1.00
2022-08-06T09:11:20.568Z,1.05
2022-08-06T09:13:57.225Z,0.95
2022-08-06T09:16:32.255Z,0.17
2022-08-06T09:19:00.183Z,2.00
2022-08-06T09:21:28.577Z,1.13
2022-08-06T09:23:58.244Z,0.73
2022-08-06T09:26:52.793Z,1.35
2022-08-06T09:29:31.745Z,0.70
2022-08-06T09:32:01.453Z,0.82
2022-08-06T09:34:39.209Z,0.47
2022-08-06T09:37:08.764Z,0.50
2022-08-06T09:39:46.358Z,0.73
2022-08-06T09:42:42.958Z,1.48
2022-08-06T09:45:15.931Z,0.93
2022-08-06T09:47:58.465Z,0.85
2022-08-06T09:50:43.388Z,1.27
2022-08-06T09:53:14.482Z,0.13
2022-08-06T09:55:42.863Z,0.80
2022-08-06T09:58:10.015Z,0.65
2022-08-06T10:00:39.401Z,0.98
2022-08-06T10:04:04.135Z,0.85
2022-08-06T10:06:10.577Z,4.25
2022-08-06T10:08:41.359Z,1.23
2022-08-06T10:11:09.098Z,1.40
2022-08-06T10:13:43.810Z,1.08
2022-08-06T10:16:17.530Z,0.60
2022-08-06T10:18:54.974Z,2.17
2022-08-06T10:21:40.063Z,0.43
2022-08-06T10:24:09.993Z,1.20
2022-08-06T10:26:36.788Z,0.63
2022-08-06T10:29:06.942Z,0.57
2022-08-06T10:31:35.168Z,1.08
2022-08-06T10:34:09.459Z,0.82
2022-08-06T10:36:50.942Z,0.47
2022-08-06T10:40:06.903Z,0.45
2022-08-06T10:42:18.212Z,1.40
2022-08-06T10:44:50.698Z,1.30
2022-08-06T10:47:18.331Z,2.20
2022-08-06T10:50:29.895Z,1.33
2022-08-06T10:52:53.546Z,1.58
2022-08-06T10:55:21.716Z,1.00
2022-08-06T10:57:51.582Z,0.80
2022-08-06T11:00:21.623Z,1.40
2022-08-06T11:03:13.578Z,0.20
2022-08-06T11:05:47.878Z,0.93
2022-08-06T11:08:53.181Z,1.45
2022-08-06T11:11:39.265Z,1.20
2022-08-06T11:14:18.763Z,0.52
2022-08-06T11:16:56.295Z,1.98
2022-08-06T11:19:46.667Z,0.55
2022-08-06T11:22:43.280Z,0.65
2022-08-06T11:25:57.621Z,1.15
2022-08-06T11:28:30.882Z,0.93
2022-08-06T11:31:03.061Z,1.40
2022-08-06T11:33:36.393Z,1.55
2022-08-06T11:36:04.399Z,1.42
2022-08-06T11:38:51.171Z,0.68
2022-08-06T11:41:54.836Z,0.77
2022-08-06T11:44:18.190Z,2.13
2022-08-06T11:46:48.241Z,1.15
2022-08-06T11:49:17.939Z,1.25
2022-08-06T11:51:46.744Z,3.22
2022-08-06T11:54:34.860Z,1.33
2022-08-06T11:57:02.323Z,1.00
2022-08-06T11:59:30.347Z,0.52
2022-08-06T12:01:59.015Z,1.60
2022-08-06T12:04:36.067Z,1.33
2022-08-06T12:07:33.256Z,0.60
2022-08-06T12:10:10.704Z,0.90
2022-08-06T12:12:51.836Z,0.88
2022-08-06T12:15:52.932Z,1.02
2022-08-06T12:18:19.341Z,0.90
2022-08-06T12:20:56.717Z,2.13
2022-08-06T12:23:54.080Z,0.93
2022-08-06T12:26:11.990Z,0.95
2022-08-06T12:28:38.843Z,1.05
2022-08-06T12:31:36.161Z,1.20
2022-08-06T12:33:52.993Z,1.80
2022-08-06T12:36:32.075Z,0.50
2022-08-06T12:39:04.186Z,1.25
2022-08-06T12:41:45.997Z,2.95
2022-08-06T12:44:55.891Z,1.00
2022-08-06T12:47:13.670Z,2.92
2022-08-06T12:49:43.646Z,1.85
2022-08-06T12:52:20.024Z,1.65
2022-08-06T12:54:57.070Z,2.40
2022-08-06T12:57:57.834Z,2.92
2022-08-06T13:00:18.651Z,2.00
2022-08-06T13:02:46.578Z,2.92
2022-08-06T13:05:14.598Z,1.80
2022-08-06T13:07:43.607Z,2.00
2022-08-06T13:10:34.321Z,2.25
2022-08-06T13:14:14.778Z,3.17
2022-08-06T13:16:07.044Z,2.70
2022-08-06T13:18:46.720Z,3.05
2022-08-06T13:21:21.345Z,2.47
2022-08-06T13:23:53.121Z,12.02
2022-08-06T13:26:27.620Z,2.92
2022-08-06T13:30:29.511Z,2.33
2022-08-06T13:32:27.385Z,2.28
2022-08-06T13:34:59.528Z,1.80
2022-08-06T13:37:56.066Z,2.95
2022-08-06T13:40:39.066Z,3.25
2022-08-06T13:43:09.521Z,2.83
2022-08-06T13:45:56.643Z,3.67
2022-08-06T13:48:23.781Z,2.92
2022-08-06T13:50:50.689Z,3.15
2022-08-06T13:53:17.799Z,4.90
2022-08-06T13:56:02.903Z,2.50
2022-08-06T13:58:30.639Z,2.88
2022-08-06T14:00:57.800Z,2.60
2022-08-06T14:03:26.304Z,2.05
2022-08-06T14:05:53.879Z,3.90
2022-08-06T14:08:34.279Z,2.60
2022-08-06T14:11:02.861Z,3.88
2022-08-06T14:13:30.205Z,3.47
2022-08-06T14:15:56.953Z,2.97
2022-08-06T14:18:28.685Z,2.80
2022-08-06T14:20:55.686Z,4.18
2022-08-06T14:23:23.190Z,3.95
2022-08-06T14:26:00.410Z,4.13
2022-08-06T14:28:30.393Z,3.00
2022-08-06T14:30:58.257Z,3.47
2022-08-06T14:33:36.692Z,3.80
2022-08-06T14:36:06.180Z,4.63
2022-08-06T14:38:34.803Z,5.05
2022-08-06T14:41:50.548Z,4.20
2022-08-06T14:44:27.808Z,4.93
2022-08-06T14:46:54.640Z,3.60
2022-08-06T14:49:21.488Z,4.25
2022-08-06T14:52:20.748Z,3.92
2022-08-06T14:54:37.870Z,3.83
2022-08-06T14:57:14.570Z,4.20
2022-08-06T14:59:49.022Z,3.58
2022-08-06T15:02:24.854Z,4.15
2022-08-06T15:04:53.336Z,3.65
2022-08-06T15:07:25.616Z,3.72
2022-08-06T15:10:05.877Z,4.13
2022-08-06T15:12:49.643Z,5.85
2022-08-06T15:15:24.102Z,4.05
2022-08-06T15:18:09.259Z,4.90
2022-08-06T15:20:43.955Z,4.18
2022-08-06T15:23:14.736Z,4.45
2022-08-06T15:25:59.811Z,5.07
2022-08-06T15:28:28.024Z,4.15
2022-08-06T15:30:55.593Z,6.68
2022-08-06T15:33:27.104Z,4.18
2022-08-06T15:36:01.835Z,4.63
2022-08-06T15:38:32.359Z,4.63
2022-08-06T15:41:00.851Z,4.18
2022-08-06T15:43:28.125Z,5.28
2022-08-06T15:46:12.075Z,6.45
2022-08-06T15:48:38.714Z,4.50
2022-08-06T15:51:27.824Z,5.82
2022-08-06T15:53:58.049Z,5.03
2022-08-06T15:56:38.332Z,6.82
2022-08-06T15:59:11.843Z,4.80
2022-08-06T16:02:01.014Z,4.60
2022-08-06T16:04:30.876Z,4.18
2022-08-06T16:07:04.014Z,5.95
2022-08-06T16:09:30.736Z,7.22
2022-08-06T16:12:17.337Z,4.68
2022-08-06T16:14:56.110Z,4.30
2022-08-06T16:17:33.564Z,3.92
2022-08-06T16:20:20.963Z,5.05
2022-08-06T16:22:51.003Z,4.18
2022-08-06T16:25:19.444Z,5.05
2022-08-06T16:27:47.733Z,4.10
2022-08-06T16:30:14.711Z,4.18
2022-08-06T16:32:42.007Z,4.15
2022-08-06T16:35:15.387Z,6.43
2022-08-06T16:37:44.820Z,5.15
2022-08-06T16:40:20.194Z,4.57
2022-08-06T16:42:47.597Z,4.22
2022-08-06T16:45:17.029Z,4.78
2022-08-06T16:48:18.274Z,4.85
2022-08-06T16:50:36.385Z,4.65
2022-08-06T16:54:08.442Z,4.13
2022-08-06T16:55:55.251Z,4.38
2022-08-06T17:02:13.882Z,4.80
2022-08-06T17:04:00.059Z,5.00
2022-08-06T17:06:30.201Z,4.30
2022-08-06T17:08:58.464Z,4.45
2022-08-06T17:11:46.824Z,4.63
2022-08-06T17:14:14.219Z,4.47
2022-08-06T17:16:44.034Z,4.57
2022-08-06T17:19:16.071Z,4.80
2022-08-06T17:21:58.424Z,4.90
2022-08-06T17:24:36.878Z,5.10
2022-08-06T17:27:08.950Z,5.53
2022-08-06T17:32:32.410Z,5.85
2022-08-06T17:35:06.608Z,5.00
2022-08-06T17:37:43.501Z,5.53
2022-08-06T17:40:18.738Z,4.80
2022-08-06T17:42:55.388Z,5.20
2022-08-06T17:45:22.688Z,5.00
2022-08-06T17:47:51.713Z,5.78
2022-08-06T17:50:20.449Z,5.45
2022-08-06T17:52:47.730Z,5.05
2022-08-06T17:55:14.814Z,6.50
2022-08-06T17:58:32.368Z,5.05
2022-08-06T18:00:32.945Z,5.38
2022-08-06T18:03:01.948Z,6.18
2022-08-06T18:05:36.514Z,5.57
2022-08-06T18:08:15.269Z,6.03
2022-08-06T18:10:48.808Z,5.32
2022-08-06T18:13:18.639Z,8.18
2022-08-06T18:15:47.289Z,6.50
2022-08-06T18:18:19.727Z,5.63
2022-08-06T18:20:48.391Z,7.28
2022-08-06T18:23:20.678Z,6.50
2022-08-06T18:25:56.787Z,6.72
2022-08-06T18:28:27.239Z,6.13
2022-08-06T18:31:01.939Z,6.95
2022-08-06T18:33:31.673Z,7.07
2022-08-06T18:35:58.994Z,7.72
2022-08-06T18:38:31.401Z,6.20
2022-08-06T18:41:14.656Z,6.57
2022-08-06T18:43:55.478Z,7.07
2022-08-06T18:46:55.910Z,7.10
2022-08-06T18:49:26.624Z,25.33
2022-08-06T18:51:59.348Z,14.65
2022-08-06T18:54:26.464Z,16.98
2022-08-06T18:56:56.326Z,12.20
2022-08-06T18:59:28.213Z,9.23
2022-08-06T19:01:59.190Z,9.75
2022-08-06T19:04:28.982Z,9.77
2022-08-06T19:07:02.923Z,11.85
2022-08-06T19:09:34.824Z,8.00
2022-08-06T19:12:12.412Z,8.98
2022-08-06T19:14:44.422Z,7.80
2022-08-06T19:18:09.578Z,9.85
2022-08-06T19:20:20.683Z,7.85
2022-08-06T19:22:53.430Z,9.48
2022-08-06T19:25:21.738Z,7.43
2022-08-06T19:28:30.619Z,8.90
2022-08-06T19:30:38.664Z,11.30
2022-08-06T19:33:16.103Z,9.57
2022-08-06T19:36:07.251Z,9.73
2022-08-06T19:38:32.075Z,10.18
2022-08-06T19:41:00.126Z,12.77
2022-08-06T19:44:25.416Z,11.00
2022-08-06T19:46:34.436Z,9.10
2022-08-06T19:49:01.229Z,8.30
2022-08-06T19:52:04.649Z,8.25
2022-08-06T19:54:19.437Z,7.88
2022-08-06T19:56:53.063Z,10.05
2022-08-06T20:00:52.441Z,7.82
2022-08-06T20:02:08.891Z,9.32
2022-08-06T20:04:42.672Z,7.93
2022-08-06T20:07:24.268Z,8.85
2022-08-06T20:10:01.328Z,10.05
2022-08-06T20:12:33.743Z,9.40
2022-08-06T20:15:08.753Z,9.80
2022-08-06T20:17:46.138Z,9.13
2022-08-06T20:20:19.130Z,9.43
2022-08-06T20:22:56.453Z,7.53
2022-08-06T20:25:23.746Z,7.80
2022-08-06T20:29:10.922Z,7.50
2022-08-06T20:30:40.624Z,9.65
2022-08-06T20:33:23.727Z,8.25
2022-08-06T20:35:57.301Z,8.90
2022-08-06T20:38:39.803Z,10.63
2022-08-06T20:41:59.234Z,10.35
2022-08-06T20:44:04.590Z,9.65
2022-08-06T20:47:00.769Z,8.80
2022-08-06T20:49:20.854Z,9.57
2022-08-06T20:51:56.591Z,9.60
2022-08-06T20:54:26.331Z,9.45
2022-08-06T20:56:59.394Z,8.52
2022-08-06T20:59:37.384Z,10.50
2022-08-06T21:02:05.042Z,10.70
2022-08-06T21:05:16.739Z,11.30
2022-08-06T21:07:28.046Z,9.27
2022-08-06T21:10:11.337Z,11.18
2022-08-06T21:12:58.943Z,10.18
2022-08-06T21:15:42.018Z,9.65
2022-08-06T21:18:12.756Z,11.23
2022-08-06T21:20:50.717Z,10.93
2022-08-06T21:23:18.027Z,10.93
2022-08-06T21:25:48.203Z,12.35
2022-08-06T21:28:19.612Z,10.93
2022-08-06T21:30:53.681Z,11.65
2022-08-06T21:33:22.639Z,9.65
2022-08-06T21:35:50.424Z,10.65
2022-08-06T21:38:24.262Z,8.90
2022-08-06T21:40:52.158Z,11.77
2022-08-06T21:43:22.117Z,9.82
2022-08-06T21:45:58.742Z,12.48
2022-08-06T21:48:32.324Z,9.80
2022-08-06T21:51:00.460Z,10.32
2022-08-06T21:53:45.752Z,10.70
2022-08-06T21:56:38.696Z,11.68
2022-08-06T21:59:02.181Z,13.02
2022-08-06T22:02:11.204Z,12.07
2022-08-06T22:04:39.237Z,12.13
2022-08-06T22:07:03.893Z,11.60
2022-08-06T22:09:38.440Z,12.55
2022-08-06T22:12:36.451Z,12.55
2022-08-06T22:14:58.442Z,11.93
2022-08-06T22:17:59.409Z,15.02
2022-08-06T22:20:22.081Z,12.60
2022-08-06T22:22:53.101Z,11.15
2022-08-06T22:25:22.339Z,12.25
2022-08-06T22:27:55.535Z,11.10
2022-08-06T22:30:37.119Z,12.50
2022-08-06T22:33:17.717Z,13.20
2022-08-06T22:35:58.100Z,11.57
2022-08-06T22:38:38.126Z,12.63
2022-08-06T22:41:05.409Z,13.07
2022-08-06T22:43:51.796Z,14.35
2022-08-06T22:46:23.891Z,13.82
2022-08-06T22:48:52.280Z,12.93
2022-08-06T22:51:28.737Z,11.55
2022-08-06T22:54:28.136Z,14.00
2022-08-06T22:57:03.159Z,14.23
2022-08-06T23:00:11.528Z,12.48
2022-08-06T23:02:20.077Z,12.13
2022-08-06T23:04:49.234Z,11.68
2022-08-06T23:07:25.431Z,11.60
2022-08-06T23:09:54.409Z,12.98
2022-08-06T23:12:31.284Z,12.05
2022-08-06T23:15:19.808Z,14.48
2022-08-06T23:17:52.366Z,14.82
2022-08-06T23:20:26.094Z,12.55
2022-08-06T23:22:58.396Z,11.48
2022-08-06T23:26:00.297Z,11.57
2022-08-06T23:28:15.425Z,14.57
2022-08-06T23:30:42.165Z,13.82
2022-08-06T23:33:09.424Z,16.15
2022-08-06T23:35:38.050Z,12.85
2022-08-06T23:38:32.021Z,12.88
2022-08-06T23:40:55.359Z,13.35
2022-08-06T23:43:23.371Z,14.30
2022-08-06T23:45:51.199Z,13.25
2022-08-06T23:48:18.083Z,11.32
2022-08-06T23:50:52.859Z,12.05
2022-08-06T23:54:05.928Z,14.50
2022-08-06T23:56:09.843Z,12.63
2022-08-06T23:58:38.053Z,12.27
